sensor_id;sensor_type;location;lat;lon;timestamp;pressure;altitude;pressure_sealevel;temperature;humidity
35848;BME280;22332;51.954;20.118;2023-12-22T00:02:51;96611.80;;;5.74;87.45
35848;BME280;22332;51.954;20.118;2023-12-22T00:05:56;96609.42;;;5.70;86.74
35848;BME280;22332;51.954;20.118;2023-12-22T00:09:02;96603.15;;;5.63;86.14
35848;BME280;22332;51.954;20.118;2023-12-22T00:12:08;96600.59;;;5.55;85.99
35848;BME280;22332;51.954;20.118;2023-12-22T00:15:14;96594.09;;;5.45;85.95
35848;BME280;22332;51.954;20.118;2023-12-22T00:18:20;96597.61;;;5.40;84.31
35848;BME280;22332;51.954;20.118;2023-12-22T00:21:25;96593.71;;;5.36;84.28
35848;BME280;22332;51.954;20.118;2023-12-22T00:24:45;96603.28;;;5.35;83.97
35848;BME280;22332;51.954;20.118;2023-12-22T00:27:51;96601.67;;;5.28;83.67
35848;BME280;22332;51.954;20.118;2023-12-22T00:30:56;96601.73;;;5.24;83.36
35848;BME280;22332;51.954;20.118;2023-12-22T00:34:02;96604.90;;;5.17;82.31
35848;BME280;22332;51.954;20.118;2023-12-22T00:37:07;96604.86;;;5.10;81.79
35848;BME280;22332;51.954;20.118;2023-12-22T00:40:14;96607.73;;;5.05;83.22
35848;BME280;22332;51.954;20.118;2023-12-22T00:43:19;96607.27;;;4.99;83.43
35848;BME280;22332;51.954;20.118;2023-12-22T00:46:25;96610.33;;;4.91;82.74
35848;BME280;22332;51.954;20.118;2023-12-22T00:49:30;96615.17;;;4.83;82.85
35848;BME280;22332;51.954;20.118;2023-12-22T00:52:36;96614.10;;;4.77;83.13
35848;BME280;22332;51.954;20.118;2023-12-22T00:55:41;96617.23;;;4.75;83.32
35848;BME280;22332;51.954;20.118;2023-12-22T00:58:47;96624.02;;;4.75;83.15
35848;BME280;22332;51.954;20.118;2023-12-22T01:01:53;96620.48;;;4.77;82.88
35848;BME280;22332;51.954;20.118;2023-12-22T01:04:58;96624.95;;;4.78;83.01
35848;BME280;22332;51.954;20.118;2023-12-22T01:08:05;96633.55;;;4.80;82.73
35848;BME280;22332;51.954;20.118;2023-12-22T01:11:10;96632.30;;;4.84;83.35
35848;BME280;22332;51.954;20.118;2023-12-22T01:14:16;96632.17;;;4.88;83.26
35848;BME280;22332;51.954;20.118;2023-12-22T01:17:22;96625.17;;;4.89;82.92
35848;BME280;22332;51.954;20.118;2023-12-22T01:20:28;96626.72;;;4.86;83.17
35848;BME280;22332;51.954;20.118;2023-12-22T01:23:33;96617.95;;;4.82;83.10
35848;BME280;22332;51.954;20.118;2023-12-22T01:26:39;96624.86;;;4.77;83.03
35848;BME280;22332;51.954;20.118;2023-12-22T01:29:44;96618.54;;;4.74;83.24
35848;BME280;22332;51.954;20.118;2023-12-22T01:32:50;96616.30;;;4.74;83.43
35848;BME280;22332;51.954;20.118;2023-12-22T01:35:55;96617.11;;;4.74;83.10
35848;BME280;22332;51.954;20.118;2023-12-22T01:39:01;96611.91;;;4.72;82.87
35848;BME280;22332;51.954;20.118;2023-12-22T01:42:07;96613.77;;;4.68;82.97
35848;BME280;22332;51.954;20.118;2023-12-22T01:45:12;96615.05;;;4.66;83.19
35848;BME280;22332;51.954;20.118;2023-12-22T01:48:18;96620.13;;;4.62;82.92
35848;BME280;22332;51.954;20.118;2023-12-22T01:51:28;96622.09;;;4.58;83.16
35848;BME280;22332;51.954;20.118;2023-12-22T01:54:34;96614.69;;;4.54;82.68
35848;BME280;22332;51.954;20.118;2023-12-22T01:57:40;96613.84;;;4.54;82.95
35848;BME280;22332;51.954;20.118;2023-12-22T02:00:46;96618.06;;;4.58;82.83
35848;BME280;22332;51.954;20.118;2023-12-22T02:03:52;96619.08;;;4.63;82.46
35848;BME280;22332;51.954;20.118;2023-12-22T02:07:01;96617.40;;;4.69;82.63
35848;BME280;22332;51.954;20.118;2023-12-22T02:10:08;96614.35;;;4.72;82.16
35848;BME280;22332;51.954;20.118;2023-12-22T02:13:14;96605.33;;;4.74;82.15
35848;BME280;22332;51.954;20.118;2023-12-22T02:16:22;96611.75;;;4.72;81.74
35848;BME280;22332;51.954;20.118;2023-12-22T02:19:41;96614.31;;;4.68;82.33
35848;BME280;22332;51.954;20.118;2023-12-22T02:22:52;96610.59;;;4.62;81.74
35848;BME280;22332;51.954;20.118;2023-12-22T02:26:02;96606.45;;;4.54;81.66
35848;BME280;22332;51.954;20.118;2023-12-22T02:29:12;96611.98;;;4.42;81.31
35848;BME280;22332;51.954;20.118;2023-12-22T02:32:24;96615.48;;;4.36;81.78
35848;BME280;22332;51.954;20.118;2023-12-22T02:35:35;96613.15;;;4.37;81.68
35848;BME280;22332;51.954;20.118;2023-12-22T02:38:43;96603.12;;;4.40;81.30
35848;BME280;22332;51.954;20.118;2023-12-22T02:41:49;96600.64;;;4.47;81.39
35848;BME280;22332;51.954;20.118;2023-12-22T02:44:55;96597.42;;;4.53;81.42
35848;BME280;22332;51.954;20.118;2023-12-22T02:48:04;96598.36;;;4.56;81.52
35848;BME280;22332;51.954;20.118;2023-12-22T02:51:10;96594.98;;;4.61;80.89
35848;BME280;22332;51.954;20.118;2023-12-22T02:54:15;96596.20;;;4.61;80.82
35848;BME280;22332;51.954;20.118;2023-12-22T02:57:21;96599.54;;;4.59;80.42
35848;BME280;22332;51.954;20.118;2023-12-22T03:00:27;96604.78;;;4.57;79.90
35848;BME280;22332;51.954;20.118;2023-12-22T03:03:32;96608.36;;;4.57;80.21
35848;BME280;22332;51.954;20.118;2023-12-22T03:06:38;96604.50;;;4.56;79.95
35848;BME280;22332;51.954;20.118;2023-12-22T03:09:44;96602.77;;;4.60;80.45
35848;BME280;22332;51.954;20.118;2023-12-22T03:12:50;96592.51;;;4.66;79.98
35848;BME280;22332;51.954;20.118;2023-12-22T03:15:56;96589.77;;;4.70;79.96
35848;BME280;22332;51.954;20.118;2023-12-22T03:19:04;96589.73;;;4.72;79.84
35848;BME280;22332;51.954;20.118;2023-12-22T03:22:10;96593.55;;;4.73;79.29
35848;BME280;22332;51.954;20.118;2023-12-22T03:25:15;96590.38;;;4.68;78.94
35848;BME280;22332;51.954;20.118;2023-12-22T03:28:21;96593.84;;;4.68;79.49
35848;BME280;22332;51.954;20.118;2023-12-22T03:31:26;96594.73;;;4.65;78.94
35848;BME280;22332;51.954;20.118;2023-12-22T03:34:32;96603.11;;;4.59;78.51
35848;BME280;22332;51.954;20.118;2023-12-22T03:37:37;96616.08;;;4.56;78.53
35848;BME280;22332;51.954;20.118;2023-12-22T03:40:43;96615.27;;;4.52;78.63
35848;BME280;22332;51.954;20.118;2023-12-22T03:43:49;96623.21;;;4.49;79.26
35848;BME280;22332;51.954;20.118;2023-12-22T03:46:54;96630.49;;;4.46;78.87
35848;BME280;22332;51.954;20.118;2023-12-22T03:50:00;96637.36;;;4.48;78.33
35848;BME280;22332;51.954;20.118;2023-12-22T03:53:05;96630.46;;;4.49;78.68
35848;BME280;22332;51.954;20.118;2023-12-22T03:56:11;96638.98;;;4.47;78.69
35848;BME280;22332;51.954;20.118;2023-12-22T03:59:17;96637.52;;;4.48;79.37
35848;BME280;22332;51.954;20.118;2023-12-22T04:02:23;96642.12;;;4.49;79.28
35848;BME280;22332;51.954;20.118;2023-12-22T04:05:28;96637.03;;;4.43;78.82
35848;BME280;22332;51.954;20.118;2023-12-22T04:08:34;96646.09;;;4.38;79.36
35848;BME280;22332;51.954;20.118;2023-12-22T04:11:39;96637.27;;;4.28;79.67
35848;BME280;22332;51.954;20.118;2023-12-22T04:14:45;96638.08;;;4.18;80.21
35848;BME280;22332;51.954;20.118;2023-12-22T04:17:51;96639.48;;;4.13;80.55
35848;BME280;22332;51.954;20.118;2023-12-22T04:20:56;96635.23;;;4.12;80.72
35848;BME280;22332;51.954;20.118;2023-12-22T04:24:02;96637.59;;;4.15;80.83
35848;BME280;22332;51.954;20.118;2023-12-22T04:27:09;96644.98;;;4.12;81.02
35848;BME280;22332;51.954;20.118;2023-12-22T04:30:15;96647.12;;;4.09;81.20
35848;BME280;22332;51.954;20.118;2023-12-22T04:33:20;96649.79;;;4.08;81.11
35848;BME280;22332;51.954;20.118;2023-12-22T04:36:26;96649.79;;;4.06;81.04
35848;BME280;22332;51.954;20.118;2023-12-22T04:39:31;96656.16;;;4.03;81.17
35848;BME280;22332;51.954;20.118;2023-12-22T04:42:37;96653.51;;;4.01;81.47
35848;BME280;22332;51.954;20.118;2023-12-22T04:45:43;96651.85;;;3.99;81.50
35848;BME280;22332;51.954;20.118;2023-12-22T04:48:48;96651.89;;;4.00;81.51
35848;BME280;22332;51.954;20.118;2023-12-22T04:51:54;96659.52;;;4.05;81.27
35848;BME280;22332;51.954;20.118;2023-12-22T04:54:59;96660.02;;;4.05;80.85
35848;BME280;22332;51.954;20.118;2023-12-22T04:58:05;96660.83;;;4.07;80.66
35848;BME280;22332;51.954;20.118;2023-12-22T05:01:10;96655.50;;;4.06;80.76
35848;BME280;22332;51.954;20.118;2023-12-22T05:04:16;96654.38;;;4.05;80.91
35848;BME280;22332;51.954;20.118;2023-12-22T05:07:22;96666.35;;;4.02;80.44
35848;BME280;22332;51.954;20.118;2023-12-22T05:10:27;96664.22;;;4.00;79.83
35848;BME280;22332;51.954;20.118;2023-12-22T05:13:33;96660.05;;;3.97;79.65
35848;BME280;22332;51.954;20.118;2023-12-22T05:16:39;96659.30;;;3.92;79.28
35848;BME280;22332;51.954;20.118;2023-12-22T05:19:44;96655.27;;;3.91;78.97
35848;BME280;22332;51.954;20.118;2023-12-22T05:22:50;96652.48;;;3.95;78.26
35848;BME280;22332;51.954;20.118;2023-12-22T05:25:55;96658.59;;;4.01;77.45
35848;BME280;22332;51.954;20.118;2023-12-22T05:29:01;96659.45;;;4.04;76.91
35848;BME280;22332;51.954;20.118;2023-12-22T05:32:07;96667.89;;;4.06;77.40
35848;BME280;22332;51.954;20.118;2023-12-22T05:35:16;96672.77;;;4.11;77.08
35848;BME280;22332;51.954;20.118;2023-12-22T05:38:21;96670.55;;;4.13;76.10
35848;BME280;22332;51.954;20.118;2023-12-22T05:41:27;96676.77;;;4.13;75.38
35848;BME280;22332;51.954;20.118;2023-12-22T05:44:32;96676.18;;;4.10;74.54
35848;BME280;22332;51.954;20.118;2023-12-22T05:47:39;96677.36;;;4.11;75.64
35848;BME280;22332;51.954;20.118;2023-12-22T05:50:44;96677.69;;;4.10;74.63
35848;BME280;22332;51.954;20.118;2023-12-22T05:53:51;96682.95;;;4.07;73.98
35848;BME280;22332;51.954;20.118;2023-12-22T05:56:57;96691.80;;;4.03;72.20
35848;BME280;22332;51.954;20.118;2023-12-22T06:00:05;96701.65;;;3.99;72.37
35848;BME280;22332;51.954;20.118;2023-12-22T06:03:15;96700.27;;;3.97;72.70
35848;BME280;22332;51.954;20.118;2023-12-22T06:06:21;96699.66;;;3.95;72.16
35848;BME280;22332;51.954;20.118;2023-12-22T06:09:26;96699.20;;;3.94;73.19
35848;BME280;22332;51.954;20.118;2023-12-22T06:12:32;96700.82;;;3.96;72.29
35848;BME280;22332;51.954;20.118;2023-12-22T06:15:38;96705.44;;;3.93;71.16
35848;BME280;22332;51.954;20.118;2023-12-22T06:18:44;96708.20;;;3.91;72.51
35848;BME280;22332;51.954;20.118;2023-12-22T06:21:50;96717.88;;;3.90;72.74
35848;BME280;22332;51.954;20.118;2023-12-22T06:24:55;96716.75;;;3.89;72.58
35848;BME280;22332;51.954;20.118;2023-12-22T06:28:01;96721.95;;;3.91;73.07
35848;BME280;22332;51.954;20.118;2023-12-22T06:31:06;96732.21;;;3.90;72.21
35848;BME280;22332;51.954;20.118;2023-12-22T06:34:12;96729.48;;;3.87;71.68
35848;BME280;22332;51.954;20.118;2023-12-22T06:37:18;96736.40;;;3.83;71.90
35848;BME280;22332;51.954;20.118;2023-12-22T06:40:23;96746.73;;;3.80;72.47
35848;BME280;22332;51.954;20.118;2023-12-22T06:43:29;96758.70;;;3.79;72.28
35848;BME280;22332;51.954;20.118;2023-12-22T06:46:35;96786.60;;;3.62;73.45
35848;BME280;22332;51.954;20.118;2023-12-22T06:49:41;96809.88;;;3.31;79.75
35848;BME280;22332;51.954;20.118;2023-12-22T06:52:46;96807.68;;;2.85;82.92
35848;BME280;22332;51.954;20.118;2023-12-22T06:55:53;96801.63;;;2.32;83.07
35848;BME280;22332;51.954;20.118;2023-12-22T06:59:02;96796.15;;;2.02;84.76
35848;BME280;22332;51.954;20.118;2023-12-22T07:02:08;96788.12;;;1.84;84.25
35848;BME280;22332;51.954;20.118;2023-12-22T07:05:34;96792.27;;;1.77;83.76
35848;BME280;22332;51.954;20.118;2023-12-22T07:08:40;96792.21;;;1.76;84.06
35848;BME280;22332;51.954;20.118;2023-12-22T07:11:48;96800.11;;;1.79;83.58
35848;BME280;22332;51.954;20.118;2023-12-22T07:14:55;96795.04;;;1.85;83.58
35848;BME280;22332;51.954;20.118;2023-12-22T07:18:00;96790.31;;;1.92;82.86
35848;BME280;22332;51.954;20.118;2023-12-22T07:21:06;96797.17;;;2.01;82.92
35848;BME280;22332;51.954;20.118;2023-12-22T07:24:12;96805.95;;;2.09;82.43
35848;BME280;22332;51.954;20.118;2023-12-22T07:27:17;96806.97;;;2.15;81.89
35848;BME280;22332;51.954;20.118;2023-12-22T07:30:23;96809.84;;;2.22;81.24
35848;BME280;22332;51.954;20.118;2023-12-22T07:33:29;96820.55;;;2.26;81.06
35848;BME280;22332;51.954;20.118;2023-12-22T07:36:34;96826.41;;;2.30;80.81
35848;BME280;22332;51.954;20.118;2023-12-22T07:39:40;96817.48;;;2.28;80.32
35848;BME280;22332;51.954;20.118;2023-12-22T07:42:46;96823.34;;;2.28;80.46
35848;BME280;22332;51.954;20.118;2023-12-22T07:45:51;96815.51;;;2.29;80.10
35848;BME280;22332;51.954;20.118;2023-12-22T07:48:58;96817.02;;;2.34;80.15
35848;BME280;22332;51.954;20.118;2023-12-22T07:52:04;96817.80;;;2.42;80.28
35848;BME280;22332;51.954;20.118;2023-12-22T07:55:10;96825.50;;;2.51;80.19
35848;BME280;22332;51.954;20.118;2023-12-22T07:58:16;96819.94;;;2.58;80.12
35848;BME280;22332;51.954;20.118;2023-12-22T08:01:23;96817.92;;;2.61;79.79
35848;BME280;22332;51.954;20.118;2023-12-22T08:04:29;96810.49;;;2.63;79.70
35848;BME280;22332;51.954;20.118;2023-12-22T08:07:35;96810.53;;;2.64;79.08
35848;BME280;22332;51.954;20.118;2023-12-22T08:10:41;96812.52;;;2.64;78.98
35848;BME280;22332;51.954;20.118;2023-12-22T08:13:47;96806.83;;;2.63;78.41
35848;BME280;22332;51.954;20.118;2023-12-22T08:16:53;96796.67;;;2.63;78.63
35848;BME280;22332;51.954;20.118;2023-12-22T08:19:58;96801.90;;;2.63;78.60
35848;BME280;22332;51.954;20.118;2023-12-22T08:23:04;96804.88;;;2.66;78.65
35848;BME280;22332;51.954;20.118;2023-12-22T08:26:10;96808.02;;;2.75;78.53
35848;BME280;22332;51.954;20.118;2023-12-22T08:29:16;96812.79;;;2.89;78.15
35848;BME280;22332;51.954;20.118;2023-12-22T08:32:23;96813.83;;;3.02;77.89
35848;BME280;22332;51.954;20.118;2023-12-22T08:35:28;96820.35;;;3.11;77.52
35848;BME280;22332;51.954;20.118;2023-12-22T08:38:34;96823.02;;;3.15;77.03
35848;BME280;22332;51.954;20.118;2023-12-22T08:41:43;96816.17;;;3.21;77.52
35848;BME280;22332;51.954;20.118;2023-12-22T08:44:49;96819.58;;;3.26;77.27
35848;BME280;22332;51.954;20.118;2023-12-22T08:47:55;96828.13;;;3.31;76.95
35848;BME280;22332;51.954;20.118;2023-12-22T08:51:01;96828.64;;;3.34;76.87
35848;BME280;22332;51.954;20.118;2023-12-22T08:54:06;96835.80;;;3.37;76.79
35848;BME280;22332;51.954;20.118;2023-12-22T08:57:12;96835.36;;;3.39;76.56
35848;BME280;22332;51.954;20.118;2023-12-22T09:00:18;96836.88;;;3.40;76.33
35848;BME280;22332;51.954;20.118;2023-12-22T09:03:24;96836.37;;;3.44;76.17
35848;BME280;22332;51.954;20.118;2023-12-22T09:06:31;96833.21;;;3.51;75.82
35848;BME280;22332;51.954;20.118;2023-12-22T09:09:54;96821.56;;;3.61;75.63
35848;BME280;22332;51.954;20.118;2023-12-22T09:13:07;96797.23;;;3.80;76.52
35848;BME280;22332;51.954;20.118;2023-12-22T09:16:12;96793.39;;;3.98;76.10
35848;BME280;22332;51.954;20.118;2023-12-22T09:19:19;96790.92;;;4.10;75.38
35848;BME280;22332;51.954;20.118;2023-12-22T09:22:25;96784.95;;;4.18;75.06
35848;BME280;22332;51.954;20.118;2023-12-22T09:25:36;96784.80;;;4.25;75.02
35848;BME280;22332;51.954;20.118;2023-12-22T09:28:44;96788.93;;;4.32;75.48
35848;BME280;22332;51.954;20.118;2023-12-22T09:31:49;96783.25;;;4.37;75.12
35848;BME280;22332;51.954;20.118;2023-12-22T09:34:55;96774.08;;;4.37;75.15
35848;BME280;22332;51.954;20.118;2023-12-22T09:38:04;96767.83;;;4.37;75.20
35848;BME280;22332;51.954;20.118;2023-12-22T09:41:09;96762.75;;;4.35;75.14
35848;BME280;22332;51.954;20.118;2023-12-22T09:44:19;96751.41;;;4.31;74.21
35848;BME280;22332;51.954;20.118;2023-12-22T09:47:25;96754.77;;;4.26;73.89
35848;BME280;22332;51.954;20.118;2023-12-22T09:50:33;96746.40;;;4.26;74.41
35848;BME280;22332;51.954;20.118;2023-12-22T09:53:40;96739.10;;;4.27;73.96
35848;BME280;22332;51.954;20.118;2023-12-22T09:56:48;96747.75;;;4.28;74.29
35848;BME280;22332;51.954;20.118;2023-12-22T10:00:17;96738.98;;;4.30;73.14
35848;BME280;22332;51.954;20.118;2023-12-22T10:03:24;96747.14;;;4.30;72.40
35848;BME280;22332;51.954;20.118;2023-12-22T10:06:30;96747.99;;;4.28;72.02
35848;BME280;22332;51.954;20.118;2023-12-22T10:09:36;96755.30;;;4.28;71.98
35848;BME280;22332;51.954;20.118;2023-12-22T10:12:42;96792.65;;;4.24;71.82
35848;BME280;22332;51.954;20.118;2023-12-22T10:15:49;96829.80;;;3.54;81.36
35848;BME280;22332;51.954;20.118;2023-12-22T10:18:59;96822.39;;;2.56;84.98
35848;BME280;22332;51.954;20.118;2023-12-22T10:22:05;96810.66;;;1.89;86.54
35848;BME280;22332;51.954;20.118;2023-12-22T10:25:11;96807.23;;;1.56;88.03
35848;BME280;22332;51.954;20.118;2023-12-22T10:28:20;96800.89;;;1.44;86.83
35848;BME280;22332;51.954;20.118;2023-12-22T10:31:29;96807.77;;;1.51;86.38
35848;BME280;22332;51.954;20.118;2023-12-22T10:34:44;96802.17;;;1.70;86.64
35848;BME280;22332;51.954;20.118;2023-12-22T10:37:49;96794.83;;;1.83;86.43
35848;BME280;22332;51.954;20.118;2023-12-22T10:40:56;96798.45;;;1.96;86.09
35848;BME280;22332;51.954;20.118;2023-12-22T10:44:04;96796.65;;;2.11;86.53
35848;BME280;22332;51.954;20.118;2023-12-22T10:47:09;96796.50;;;2.24;85.53
35848;BME280;22332;51.954;20.118;2023-12-22T10:50:15;96796.07;;;2.46;85.26
35848;BME280;22332;51.954;20.118;2023-12-22T10:53:22;96788.09;;;2.64;84.62
35848;BME280;22332;51.954;20.118;2023-12-22T10:56:29;96782.40;;;2.79;84.35
35848;BME280;22332;51.954;20.118;2023-12-22T10:59:38;96774.70;;;2.89;83.99
35848;BME280;22332;51.954;20.118;2023-12-22T11:02:44;96768.33;;;3.01;83.71
35848;BME280;22332;51.954;20.118;2023-12-22T11:05:55;96763.83;;;3.13;82.96
35848;BME280;22332;51.954;20.118;2023-12-22T11:09:06;96759.27;;;3.28;82.13
35848;BME280;22332;51.954;20.118;2023-12-22T11:12:13;96762.92;;;3.33;80.72
35848;BME280;22332;51.954;20.118;2023-12-22T11:15:20;96752.73;;;3.32;80.53
35848;BME280;22332;51.954;20.118;2023-12-22T11:18:26;96763.64;;;3.33;80.50
35848;BME280;22332;51.954;20.118;2023-12-22T11:21:33;96764.17;;;3.28;79.93
35848;BME280;22332;51.954;20.118;2023-12-22T11:24:41;96756.39;;;3.21;79.65
35848;BME280;22332;51.954;20.118;2023-12-22T11:27:49;96746.63;;;3.20;79.29
35848;BME280;22332;51.954;20.118;2023-12-22T11:30:58;96741.70;;;3.24;79.49
35848;BME280;22332;51.954;20.118;2023-12-22T11:34:07;96738.98;;;3.31;78.74
35848;BME280;22332;51.954;20.118;2023-12-22T11:37:14;96728.10;;;3.33;77.73
35848;BME280;22332;51.954;20.118;2023-12-22T11:40:20;96730.98;;;3.35;78.56
35848;BME280;22332;51.954;20.118;2023-12-22T11:43:26;96730.91;;;3.44;78.88
35848;BME280;22332;51.954;20.118;2023-12-22T11:46:32;96726.53;;;3.52;78.75
35848;BME280;22332;51.954;20.118;2023-12-22T11:49:39;96723.21;;;3.65;78.29
35848;BME280;22332;51.954;20.118;2023-12-22T11:52:44;96723.96;;;3.78;78.82
35848;BME280;22332;51.954;20.118;2023-12-22T11:56:06;96715.75;;;3.95;78.33
35848;BME280;22332;51.954;20.118;2023-12-22T11:59:12;96705.25;;;4.01;78.13
35848;BME280;22332;51.954;20.118;2023-12-22T12:02:22;96698.80;;;3.98;77.74
35848;BME280;22332;51.954;20.118;2023-12-22T12:05:28;96695.19;;;3.88;76.97
35848;BME280;22332;51.954;20.118;2023-12-22T12:08:34;96692.46;;;3.82;77.85
35848;BME280;22332;51.954;20.118;2023-12-22T12:12:10;96697.09;;;3.79;77.42
35848;BME280;22332;51.954;20.118;2023-12-22T12:15:18;96672.61;;;3.66;77.97
35848;BME280;22332;51.954;20.118;2023-12-22T12:18:30;96679.96;;;3.67;78.15
35848;BME280;22332;51.954;20.118;2023-12-22T12:21:40;96684.84;;;3.53;78.44
35848;BME280;22332;51.954;20.118;2023-12-22T12:24:46;96684.78;;;3.38;79.07
35848;BME280;22332;51.954;20.118;2023-12-22T12:27:52;96690.48;;;3.30;79.56
35848;BME280;22332;51.954;20.118;2023-12-22T12:31:07;96702.55;;;3.32;79.81
35848;BME280;22332;51.954;20.118;2023-12-22T12:34:14;96703.06;;;3.39;80.05
35848;BME280;22332;51.954;20.118;2023-12-22T12:37:22;96700.16;;;3.41;79.95
35848;BME280;22332;51.954;20.118;2023-12-22T12:40:29;96699.64;;;3.43;80.22
35848;BME280;22332;51.954;20.118;2023-12-22T12:43:40;96700.19;;;3.39;80.19
35848;BME280;22332;51.954;20.118;2023-12-22T12:46:47;96700.89;;;3.33;80.42
35848;BME280;22332;51.954;20.118;2023-12-22T12:49:59;96701.02;;;3.32;80.68
35848;BME280;22332;51.954;20.118;2023-12-22T12:53:06;96694.48;;;3.33;80.98
35848;BME280;22332;51.954;20.118;2023-12-22T12:56:12;96697.76;;;3.40;80.93
35848;BME280;22332;51.954;20.118;2023-12-22T12:59:19;96692.31;;;3.37;80.99
35848;BME280;22332;51.954;20.118;2023-12-22T13:02:24;96703.77;;;3.27;81.51
35848;BME280;22332;51.954;20.118;2023-12-22T13:05:31;96704.77;;;3.19;81.34
35848;BME280;22332;51.954;20.118;2023-12-22T13:08:37;96702.23;;;3.20;81.70
35848;BME280;22332;51.954;20.118;2023-12-22T13:11:46;96698.16;;;3.16;81.79
35848;BME280;22332;51.954;20.118;2023-12-22T13:14:51;96697.27;;;3.08;82.02
35848;BME280;22332;51.954;20.118;2023-12-22T13:17:57;96693.41;;;3.08;82.03
35848;BME280;22332;51.954;20.118;2023-12-22T13:21:06;96699.20;;;3.14;82.09
35848;BME280;22332;51.954;20.118;2023-12-22T13:24:14;96685.98;;;3.15;82.09
35848;BME280;22332;51.954;20.118;2023-12-22T13:27:21;96696.66;;;3.18;81.96
35848;BME280;22332;51.954;20.118;2023-12-22T13:30:38;96688.33;;;3.17;81.87
35848;BME280;22332;51.954;20.118;2023-12-22T13:33:46;96683.46;;;3.18;82.03
35848;BME280;22332;51.954;20.118;2023-12-22T13:36:53;96681.51;;;3.10;81.88
35848;BME280;22332;51.954;20.118;2023-12-22T13:40:00;96681.24;;;3.06;82.25
35848;BME280;22332;51.954;20.118;2023-12-22T13:43:06;96687.02;;;3.03;82.27
35848;BME280;22332;51.954;20.118;2023-12-22T13:46:13;96683.98;;;3.04;82.39
35848;BME280;22332;51.954;20.118;2023-12-22T13:49:19;96680.39;;;3.07;82.26
35848;BME280;22332;51.954;20.118;2023-12-22T13:52:29;96678.15;;;3.10;82.27
35848;BME280;22332;51.954;20.118;2023-12-22T13:55:37;96679.92;;;3.07;82.37
35848;BME280;22332;51.954;20.118;2023-12-22T13:58:46;96681.89;;;3.08;82.35
35848;BME280;22332;51.954;20.118;2023-12-22T14:01:52;96678.80;;;3.06;82.44
35848;BME280;22332;51.954;20.118;2023-12-22T14:04:57;96685.77;;;3.00;82.39
35848;BME280;22332;51.954;20.118;2023-12-22T14:08:05;96696.66;;;2.92;82.48
35848;BME280;22332;51.954;20.118;2023-12-22T14:11:10;96698.73;;;2.91;82.88
35848;BME280;22332;51.954;20.118;2023-12-22T14:14:17;96700.89;;;2.88;82.90
35848;BME280;22332;51.954;20.118;2023-12-22T14:17:23;96711.05;;;2.87;83.01
35848;BME280;22332;51.954;20.118;2023-12-22T14:20:29;96715.31;;;2.82;83.32
35848;BME280;22332;51.954;20.118;2023-12-22T14:23:34;96710.31;;;2.76;83.21
35848;BME280;22332;51.954;20.118;2023-12-22T14:26:54;96717.15;;;2.68;83.36
35848;BME280;22332;51.954;20.118;2023-12-22T14:30:00;96709.12;;;2.61;83.63
35848;BME280;22332;51.954;20.118;2023-12-22T14:33:06;96706.09;;;2.56;83.80
35848;BME280;22332;51.954;20.118;2023-12-22T14:36:12;96708.85;;;2.55;83.66
35848;BME280;22332;51.954;20.118;2023-12-22T14:39:17;96711.20;;;2.46;84.05
35848;BME280;22332;51.954;20.118;2023-12-22T14:42:23;96710.77;;;2.45;84.05
35848;BME280;22332;51.954;20.118;2023-12-22T14:45:28;96709.73;;;2.42;84.30
35848;BME280;22332;51.954;20.118;2023-12-22T14:48:34;96714.59;;;2.40;84.49
35848;BME280;22332;51.954;20.118;2023-12-22T14:51:40;96715.05;;;2.36;84.54
35848;BME280;22332;51.954;20.118;2023-12-22T14:54:46;96717.49;;;2.34;85.04
35848;BME280;22332;51.954;20.118;2023-12-22T14:57:52;96725.58;;;2.31;85.17
35848;BME280;22332;51.954;20.118;2023-12-22T15:00:57;96719.23;;;2.32;84.98
35848;BME280;22332;51.954;20.118;2023-12-22T15:04:04;96730.15;;;2.28;85.60
35848;BME280;22332;51.954;20.118;2023-12-22T15:07:13;96728.13;;;2.25;85.24
35848;BME280;22332;51.954;20.118;2023-12-22T15:10:22;96724.91;;;2.23;85.37
35848;BME280;22332;51.954;20.118;2023-12-22T15:13:27;96734.55;;;2.20;85.24
35848;BME280;22332;51.954;20.118;2023-12-22T15:16:33;96736.86;;;2.27;85.16
35848;BME280;22332;51.954;20.118;2023-12-22T15:19:41;96722.27;;;2.30;85.10
35848;BME280;22332;51.954;20.118;2023-12-22T15:22:49;96725.55;;;2.29;84.75
35848;BME280;22332;51.954;20.118;2023-12-22T15:25:55;96732.93;;;2.27;84.90
35848;BME280;22332;51.954;20.118;2023-12-22T15:29:01;96731.47;;;2.26;84.71
35848;BME280;22332;51.954;20.118;2023-12-22T15:32:07;96732.77;;;2.30;84.77
35848;BME280;22332;51.954;20.118;2023-12-22T15:35:12;96740.31;;;2.37;84.53
35848;BME280;22332;51.954;20.118;2023-12-22T15:38:18;96737.49;;;2.43;84.25
35848;BME280;22332;51.954;20.118;2023-12-22T15:41:24;96738.09;;;2.50;84.07
35848;BME280;22332;51.954;20.118;2023-12-22T15:44:33;96735.37;;;2.53;84.02
35848;BME280;22332;51.954;20.118;2023-12-22T15:47:43;96742.10;;;2.50;83.58
35848;BME280;22332;51.954;20.118;2023-12-22T15:50:49;96740.16;;;2.47;83.72
35848;BME280;22332;51.954;20.118;2023-12-22T15:53:57;96741.77;;;2.48;83.69
35848;BME280;22332;51.954;20.118;2023-12-22T15:57:03;96740.70;;;2.50;83.37
35848;BME280;22332;51.954;20.118;2023-12-22T16:00:11;96740.82;;;2.52;83.20
35848;BME280;22332;51.954;20.118;2023-12-22T16:03:27;96746.77;;;2.56;82.91
35848;BME280;22332;51.954;20.118;2023-12-22T16:06:33;96753.13;;;2.62;82.30
35848;BME280;22332;51.954;20.118;2023-12-22T16:09:39;96757.11;;;2.62;82.26
35848;BME280;22332;51.954;20.118;2023-12-22T16:12:44;96769.27;;;2.59;80.72
35848;BME280;22332;51.954;20.118;2023-12-22T16:15:50;96773.17;;;2.54;80.61
35848;BME280;22332;51.954;20.118;2023-12-22T16:18:56;96781.11;;;2.53;80.04
35848;BME280;22332;51.954;20.118;2023-12-22T16:22:01;96785.92;;;2.53;79.61
35848;BME280;22332;51.954;20.118;2023-12-22T16:25:08;96793.48;;;2.51;79.14
35848;BME280;22332;51.954;20.118;2023-12-22T16:28:13;96796.72;;;2.47;80.12
35848;BME280;22332;51.954;20.118;2023-12-22T16:31:19;96803.98;;;2.45;79.35